Time;durP1;ratioP1;P1;durP2;ratioP2;P2;SDS_P1;SDS_P2;PMS_P1;PMS_P2;Temp;Humidity;BMP_temperature;BMP_pressure;BME280_temperature;BME280_humidity;BME280_pressure;Samples;Min_cycle;Max_cycle;Signal;HPM_P1;HPM_P2
2022/05/02 00:05:52;;;;;;;8.13;7.30;;;;;;;13.83;70.75;94985.72;5048774;28;20430;-80
2022/05/02 00:08:19;;;;;;;9.80;7.83;;;;;;;13.88;70.24;94983.50;5055808;28;20808;-80
2022/05/02 00:10:45;;;;;;;9.00;6.77;;;;;;;13.80;70.69;94988.66;5055947;28;20418;-80
2022/05/02 00:13:12;;;;;;;6.47;5.77;;;;;;;13.84;70.08;94994.47;5055784;28;20438;-80
2022/05/02 00:15:39;;;;;;;7.53;6.83;;;;;;;13.86;69.79;94987.25;5055833;28;20434;-81
2022/05/02 00:24:51;;;;;;;8.43;6.60;;;;;;;13.99;69.29;94982.47;5055822;28;20907;-80
2022/05/02 00:27:18;;;;;;;7.80;6.30;;;;;;;14.06;69.08;94983.50;5037285;28;20478;-80
2022/05/02 00:29:45;;;;;;;8.13;7.10;;;;;;;14.15;68.76;94976.50;5055826;28;20454;-81
2022/05/02 00:32:11;;;;;;;6.70;6.00;;;;;;;13.86;69.01;94974.88;5055592;28;20434;-80
2022/05/02 00:34:38;;;;;;;7.33;6.73;;;;;;;13.86;68.77;94979.31;5020672;28;20430;-80
2022/05/02 00:53:55;;;;;;;6.43;5.83;;;;;;;13.11;72.48;94968.00;5054136;28;20448;-81
2022/05/02 00:56:23;;;;;;;10.60;7.33;;;;;;;13.36;71.59;94965.72;5055551;28;21079;-81
2022/05/02 00:58:50;;;;;;;7.03;6.43;;;;;;;13.18;72.08;94963.00;5055652;28;20454;-80
2022/05/02 01:01:17;;;;;;;6.70;5.97;;;;;;;13.38;71.35;94966.41;5055728;28;20434;-81
2022/05/02 01:03:44;;;;;;;10.13;6.50;;;;;;;13.32;71.02;94962.53;5054915;28;20517;-80
2022/05/02 01:09:23;;;;;;;6.90;5.90;;;;;;;13.53;70.53;94949.13;5054896;28;20414;-80
2022/05/02 01:11:50;;;;;;;7.17;6.57;;;;;;;13.60;69.95;94947.56;5020150;28;20449;-80
2022/05/02 01:14:16;;;;;;;7.83;6.90;;;;;;;13.71;69.94;94943.91;5055201;28;20457;-80
2022/05/02 01:16:44;;;;;;;7.53;6.80;;;;;;;13.66;69.55;94940.88;5055107;28;20812;-81
2022/05/02 01:19:10;;;;;;;7.90;6.37;;;;;;;13.64;70.16;94941.84;5054587;28;20445;-81
2022/05/02 01:25:00;;;;;;;6.57;5.20;;;;;;;13.78;69.65;94943.16;5053874;28;20456;-81
2022/05/02 01:27:28;;;;;;;6.73;5.53;;;;;;;13.85;68.88;94938.94;5054188;28;20489;-80
2022/05/02 01:29:55;;;;;;;8.80;7.70;;;;;;;13.80;69.32;94937.72;5018562;28;20951;-80
2022/05/02 01:32:22;;;;;;;5.70;5.20;;;;;;;13.65;69.80;94934.78;5054102;28;20446;-80
2022/05/02 01:34:49;;;;;;;5.50;5.03;;;;;;;13.47;70.92;94929.44;5054290;28;20945;-80
2022/05/02 01:37:15;;;;;;;7.87;5.13;;;;;;;13.63;70.42;94932.28;5054506;28;20928;-81
2022/05/02 01:39:43;;;;;;;6.20;5.63;;;;;;;13.45;71.76;94927.94;5019448;28;20438;-81
2022/05/02 01:59:00;;;;;;;7.67;6.93;;;;;;;13.01;75.05;94907.44;5053975;28;20412;-80
2022/05/02 02:01:27;;;;;;;6.50;5.90;;;;;;;13.05;74.99;94907.97;5054107;28;20444;-80
2022/05/02 02:03:54;;;;;;;6.77;6.17;;;;;;;12.97;74.42;94906.03;5053815;28;20430;-80
2022/05/02 02:06:21;;;;;;;6.07;5.57;;;;;;;12.80;75.27;94908.63;5053927;28;20438;-80
2022/05/02 02:12:15;;;;;;;7.50;5.90;;;;;;;12.99;74.16;94898.81;5053850;28;20493;-80
2022/05/02 02:14:44;;;;;;;9.27;8.10;;;;;;;12.87;74.98;94886.81;5053669;28;20441;-80
2022/05/02 02:17:10;;;;;;;10.50;9.40;;;;;;;12.81;74.70;94890.03;5053973;28;20450;-80
2022/05/02 02:19:37;;;;;;;11.87;10.50;;;;;;;12.90;74.45;94891.78;5053518;28;20442;-80
2022/05/02 02:22:17;;;;;;;11.60;10.50;;;;;;;12.91;74.66;94885.56;5053563;28;20442;-80
2022/05/02 02:24:45;;;;;;;12.17;10.30;;;;;;;12.89;74.85;94879.59;5022348;28;20491;-80
2022/05/02 02:27:12;;;;;;;11.03;10.00;;;;;;;12.80;75.17;94880.47;5053978;28;20820;-80
2022/05/02 02:29:39;;;;;;;13.13;10.70;;;;;;;12.93;74.35;94875.69;5053705;28;20442;-80
2022/05/02 02:32:08;;;;;;;11.63;10.53;;;;;;;12.93;73.92;94872.25;5053784;28;20924;-80
2022/05/02 02:34:35;;;;;;;9.50;8.63;;;;;;;12.96;74.76;94871.94;5018682;28;20450;-80
2022/05/02 02:37:02;;;;;;;7.87;7.07;;;;;;;12.87;74.45;94873.66;5053252;28;20434;-80
2022/05/02 02:39:29;;;;;;;6.93;6.30;;;;;;;12.67;75.05;94864.16;5053182;28;20449;-80
2022/05/02 02:41:56;;;;;;;8.10;7.13;;;;;;;12.56;76.21;94845.91;5053924;28;20430;-80
2022/05/02 02:44:23;;;;;;;7.27;6.67;;;;;;;12.46;76.72;94855.66;5053803;28;20457;-80
2022/05/02 02:46:50;;;;;;;9.35;8.35;;;;;;;12.49;76.98;94860.63;5053700;28;20452;-80
2022/05/02 02:59:26;;;;;;;8.63;7.70;;;;;;;12.17;78.07;94864.41;5053209;28;20397;-80
2022/05/02 03:01:53;;;;;;;8.50;7.70;;;;;;;12.33;76.93;94858.56;5053094;28;20437;-80
2022/05/02 03:07:06;;;;;;;12.57;7.60;;;;;;;12.41;76.84;94851.59;5053045;28;20554;-80
2022/05/02 03:09:33;;;;;;;10.67;7.50;;;;;;;12.55;77.14;94847.72;5053211;28;21018;-81
2022/05/02 03:12:00;;;;;;;8.30;7.53;;;;;;;12.67;76.08;94854.44;5053328;28;20422;-80
2022/05/02 03:14:28;;;;;;;7.97;7.17;;;;;;;12.73;76.28;94850.44;5053537;28;20794;-80
2022/05/02 03:16:55;;;;;;;7.90;7.20;;;;;;;12.74;75.02;94852.09;5053303;28;20521;-82
2022/05/02 03:19:22;;;;;;;13.37;7.73;;;;;;;12.77;75.20;94846.53;5053769;28;20433;-81
2022/05/02 03:21:49;;;;;;;9.40;8.10;;;;;;;12.63;76.09;94849.63;5052792;28;20437;-80
2022/05/02 03:24:15;;;;;;;10.37;8.20;;;;;;;12.51;76.11;94850.78;5018316;28;20434;-81
2022/05/02 03:26:42;;;;;;;10.30;8.87;;;;;;;11.99;78.77;94850.31;5052690;28;20449;-81
2022/05/02 03:29:09;;;;;;;9.83;8.87;;;;;;;11.94;79.35;94852.53;5052857;28;20445;-80
2022/05/02 03:31:37;;;;;;;9.93;8.53;;;;;;;11.79;79.00;94858.19;5052777;28;20927;-80
2022/05/02 03:34:04;;;;;;;7.90;7.10;;;;;;;11.92;79.34;94857.94;5052972;28;20434;-80
2022/05/02 03:36:31;;;;;;;9.50;8.60;;;;;;;12.04;79.17;94851.53;5063748;28;20433;-81
2022/05/02 03:38:58;;;;;;;14.57;9.30;;;;;;;12.03;78.23;94851.69;5072814;28;20443;-79
2022/05/02 03:41:25;;;;;;;13.87;9.77;;;;;;;12.03;77.93;94852.50;5072706;28;20440;-82
2022/05/02 03:43:52;;;;;;;12.43;10.43;;;;;;;12.08;77.82;94854.72;5072874;28;20476;-80
2022/05/02 03:46:19;;;;;;;12.73;9.97;;;;;;;12.01;77.70;94848.38;5072334;28;20458;-80
2022/05/02 03:48:47;;;;;;;15.40;9.10;;;;;;;11.96;78.46;94861.94;5072940;28;20475;-79
2022/05/02 03:51:14;;;;;;;12.53;8.83;;;;;;;12.15;78.01;94858.47;5056158;28;20445;-80
2022/05/02 03:53:41;;;;;;;14.87;8.30;;;;;;;12.42;77.30;94857.69;5021610;28;20445;-80
2022/05/02 03:56:08;;;;;;;15.73;8.70;;;;;;;12.47;77.00;94855.50;5056207;28;20433;-80
2022/05/02 03:58:35;;;;;;;10.40;7.70;;;;;;;12.75;76.20;94863.47;5056599;28;20429;-80
2022/05/02 04:01:02;;;;;;;9.23;6.97;;;;;;;13.01;74.04;94864.47;5056338;28;20434;-80
2022/05/02 04:03:28;;;;;;;7.80;7.20;;;;;;;13.58;72.23;94871.22;5056667;28;20449;-81
2022/05/02 04:05:57;;;;;;;8.40;7.27;;;;;;;14.17;69.83;94869.84;5056043;28;20426;-80
2022/05/02 04:19:26;;;;;;;6.27;5.30;;;;;;;15.42;62.54;94870.28;5056054;28;20429;-80
2022/05/02 04:21:55;;;;;;;6.83;5.17;;;;;;;15.23;61.88;94867.03;5055997;28;20450;-80
2022/05/02 04:24:22;;;;;;;5.73;5.23;;;;;;;15.30;62.11;94871.53;5055909;28;20446;-80
2022/05/02 04:26:48;;;;;;;10.83;6.03;;;;;;;15.50;60.81;94864.16;5056200;28;20454;-80
2022/05/02 04:29:15;;;;;;;6.50;5.90;;;;;;;15.84;60.56;94858.00;5056402;28;20440;-80
2022/05/02 04:31:42;;;;;;;6.13;5.53;;;;;;;16.06;59.51;94857.38;5055591;28;20434;-80
2022/05/02 04:34:09;;;;;;;13.73;5.80;;;;;;;16.20;59.24;94858.56;5055691;28;20473;-79
2022/05/02 04:36:36;;;;;;;14.17;5.30;;;;;;;16.30;57.68;94867.97;5055690;28;20513;-80
2022/05/02 04:39:04;;;;;;;6.20;5.60;;;;;;;16.40;57.16;94854.56;5055412;28;20441;-80
2022/05/02 04:41:31;;;;;;;6.60;5.60;;;;;;;16.87;55.59;94864.47;5055128;28;21239;-80
2022/05/02 04:47:19;;;;;;;8.90;4.67;;;;;;;17.00;54.49;94864.75;5054203;28;20679;-80
2022/05/02 04:49:46;;;;;;;7.00;5.27;;;;;;;17.29;54.47;94872.97;5055463;28;20445;-80
2022/05/02 04:52:13;;;;;;;6.83;5.77;;;;;;;17.48;53.35;94868.25;5055100;28;20442;-80
2022/05/02 04:54:41;;;;;;;6.30;5.73;;;;;;;17.56;53.21;94868.22;5055317;28;20445;-80
2022/05/02 04:57:09;;;;;;;6.63;6.00;;;;;;;17.76;52.85;94866.81;5055253;28;20446;-79
2022/05/02 04:59:36;;;;;;;11.63;5.50;;;;;;;17.62;52.59;94862.19;5037139;28;20812;-80
2022/05/02 05:02:04;;;;;;;8.33;5.60;;;;;;;17.78;52.23;94869.28;5055398;28;20438;-80
2022/05/02 05:04:31;;;;;;;8.23;6.93;;;;;;;17.49;51.79;94868.06;5055043;28;20469;-80
2022/05/02 05:06:58;;;;;;;14.53;6.13;;;;;;;17.77;52.24;94862.34;5019978;28;20449;-79
2022/05/02 05:09:46;;;;;;;7.67;5.93;;;;;;;17.38;53.10;94862.34;5055158;28;20441;-80
2022/05/02 05:12:23;;;;;;;6.13;5.63;;;;;;;17.71;52.67;94858.56;5055018;28;20437;-80
2022/05/02 05:18:02;;;;;;;6.67;5.50;;;;;;;18.36;50.24;94858.09;5054878;28;20471;-80
2022/05/02 05:20:43;;;;;;;7.90;7.10;;;;;;;18.83;49.73;94854.41;5055015;28;20900;-80
2022/05/02 05:23:36;;;;;;;7.23;6.30;;;;;;;18.70;48.44;94844.38;5055178;28;20440;-80
2022/05/02 05:26:16;;;;;;;8.73;7.33;;;;;;;19.03;48.32;94842.22;5055162;28;20431;-80
2022/05/02 05:29:02;;;;;;;7.77;7.00;;;;;;;19.28;48.29;94839.28;5053743;28;20485;-79
2022/05/02 05:31:35;;;;;;;10.73;6.33;;;;;;;19.45;48.69;94833.59;4992651;28;20444;-80
2022/05/02 05:34:09;;;;;;;9.00;6.70;;;;;;;19.75;46.73;94837.03;4992645;28;20440;-80
2022/05/02 05:36:59;;;;;;;9.27;7.70;;;;;;;19.68;46.49;94841.47;4993746;28;20536;-80
2022/05/02 05:39:36;;;;;;;7.87;7.00;;;;;;;19.67;46.72;94842.50;5012455;28;20514;-80
2022/05/02 05:45:40;;;;;;;8.27;7.47;;;;;;;19.31;47.46;94839.72;5011453;28;20438;-79
2022/05/02 05:48:15;;;;;;;6.63;6.03;;;;;;;19.51;48.76;94842.66;5011130;28;20470;-81
2022/05/02 05:50:43;;;;;;;10.90;5.57;;;;;;;19.22;48.37;94842.69;4996264;28;20218;-79
2022/05/02 05:53:22;;;;;;;5.27;4.80;;;;;;;18.74;48.14;94843.00;5012566;28;20439;-83
2022/05/02 05:56:02;;;;;;;5.47;4.90;;;;;;;18.98;47.73;94841.94;5011643;28;21081;-79
2022/05/02 05:58:38;;;;;;;8.30;5.20;;;;;;;19.31;48.47;94846.88;5012473;28;20471;-81
2022/05/02 06:01:12;;;;;;;6.73;5.00;;;;;;;18.90;47.87;94838.56;5012192;28;20554;-81
2022/05/02 06:20:24;;;;;;;7.93;6.50;;;;;;;20.50;44.69;94826.94;5053781;28;20424;-79
2022/05/02 06:22:51;;;;;;;8.50;7.70;;;;;;;20.41;44.90;94824.41;5053781;28;20446;-78
2022/05/02 06:25:22;;;;;;;8.33;7.13;;;;;;;20.44;44.70;94823.19;5053726;28;20452;-78
2022/05/02 06:27:50;;;;;;;9.63;8.73;;;;;;;20.19;44.53;94821.91;5053795;28;20478;-78
2022/05/02 06:30:17;;;;;;;8.73;7.90;;;;;;;20.17;45.31;94811.44;5053721;28;20426;-79
2022/05/02 06:32:45;;;;;;;11.43;9.53;;;;;;;20.20;45.46;94813.72;5035189;28;20811;-80
2022/05/02 06:35:12;;;;;;;16.83;8.63;;;;;;;20.02;45.35;94806.19;5053310;28;20445;-80
2022/05/02 06:37:45;;;;;;;10.97;9.97;;;;;;;19.93;45.41;94801.16;5063648;28;20453;-80
2022/05/02 06:40:23;;;;;;;10.43;9.00;;;;;;;19.78;45.70;94803.88;5073788;28;20440;-81
2022/05/02 06:42:59;;;;;;;14.63;10.73;;;;;;;19.29;46.66;94806.34;5039802;28;20471;-80
2022/05/02 06:45:35;;;;;;;9.87;9.00;;;;;;;18.97;48.88;94802.22;5073656;28;20829;-79
2022/05/02 06:48:20;;;;;;;12.23;10.53;;;;;;;19.21;48.18;94804.63;5073157;28;20469;-79
2022/05/02 06:50:48;;;;;;;12.80;11.60;;;;;;;18.94;47.68;94802.59;5073583;28;20815;-80
2022/05/02 06:53:44;;;;;;;12.33;10.30;;;;;;;18.32;49.94;94801.03;5073233;28;20425;-79
2022/05/02 06:56:22;;;;;;;13.70;12.47;;;;;;;18.26;52.09;94799.09;5073447;28;20480;-80
2022/05/02 06:58:59;;;;;;;12.83;11.27;;;;;;;18.18;51.79;94796.47;5073327;28;20445;-79
2022/05/02 07:11:44;;;;;;;9.37;8.17;;;;;;;16.76;54.13;94787.97;5071936;28;21088;-79
2022/05/02 07:14:23;;;;;;;11.43;10.27;;;;;;;16.88;54.85;94789.28;5073139;28;20892;-79
2022/05/02 07:16:50;;;;;;;12.30;10.57;;;;;;;16.96;54.80;94784.75;5073050;28;20942;-79
2022/05/02 07:19:31;;;;;;;13.70;9.97;;;;;;;17.01;60.39;94776.28;5073238;28;20549;-80
2022/05/02 07:22:02;;;;;;;7.30;6.80;;;;;;;16.18;56.40;94784.56;5072893;28;20908;-80
2022/05/02 07:24:46;;;;;;;10.97;9.93;;;;;;;16.45;56.44;94780.72;5073142;28;20421;-79
2022/05/02 07:27:44;;;;;;;11.90;10.57;;;;;;;16.82;55.70;94774.06;5074897;28;20812;-79
2022/05/02 07:30:11;;;;;;;12.20;8.90;;;;;;;17.54;54.34;94778.16;5076647;28;20473;-80
2022/05/02 07:32:38;;;;;;;18.03;10.80;;;;;;;18.00;52.71;94783.53;5076332;28;20445;-80
2022/05/02 07:35:06;;;;;;;12.73;8.80;;;;;;;18.46;51.21;94764.84;5076553;28;20433;-79
2022/05/02 07:37:37;;;;;;;6.67;5.97;;;;;;;18.24;48.24;94761.25;5076384;28;20933;-79
2022/05/02 07:40:07;;;;;;;7.43;6.00;;;;;;;18.44;48.78;94762.38;5076662;28;20455;-79
2022/05/02 07:42:37;;;;;;;6.47;5.87;;;;;;;18.08;49.95;94774.66;5058025;28;20449;-79
2022/05/02 07:45:07;;;;;;;7.93;7.17;;;;;;;18.13;49.22;94765.16;5076573;28;20440;-80
2022/05/02 07:47:36;;;;;;;7.07;6.47;;;;;;;17.46;51.26;94780.06;5064199;28;20516;-79
2022/05/02 07:50:05;;;;;;;7.30;6.70;;;;;;;16.91;50.91;94765.06;5076567;28;20437;-79
2022/05/02 07:52:39;;;;;;;13.40;8.20;;;;;;;16.91;51.96;94770.38;5076367;28;20519;-79
2022/05/02 07:55:09;;;;;;;9.73;7.93;;;;;;;16.80;52.50;94776.06;5076424;28;20485;-80
2022/05/02 07:57:39;;;;;;;11.27;8.80;;;;;;;16.63;52.88;94769.94;5076184;28;20499;-79
2022/05/02 08:00:10;;;;;;;13.57;7.07;;;;;;;16.94;52.98;94780.63;5076410;28;20834;-80
2022/05/02 08:02:37;;;;;;;8.40;7.60;;;;;;;16.49;52.21;94792.66;5076361;28;20478;-79
2022/05/02 08:05:05;;;;;;;10.40;7.67;;;;;;;17.12;51.19;94794.47;5076075;28;20447;-78
2022/05/02 08:07:35;;;;;;;8.50;7.80;;;;;;;17.43;49.85;94793.66;5075704;28;20993;-78
2022/05/02 08:10:15;;;;;;;9.93;8.07;;;;;;;17.10;50.08;94804.44;5075837;28;20489;-78
2022/05/02 08:12:53;;;;;;;16.43;9.67;;;;;;;16.79;51.59;94795.59;5075580;28;20809;-78
2022/05/02 08:15:24;;;;;;;20.73;10.20;;;;;;;16.72;51.92;94804.19;5040788;28;20440;-77
2022/05/02 08:18:21;;;;;;;11.27;9.80;;;;;;;16.90;51.92;94798.69;5075726;28;20919;-78
2022/05/02 08:20:55;;;;;;;12.63;11.43;;;;;;;17.51;50.86;94809.53;5075707;28;20536;-78
2022/05/02 08:29:44;;;;;;;11.33;10.13;;;;;;;16.79;51.68;94798.25;5075039;28;21058;-78
2022/05/02 08:32:19;;;;;;;15.80;11.30;;;;;;;17.01;51.63;94794.84;5057727;28;20453;-77
2022/05/02 08:34:52;;;;;;;13.20;11.47;;;;;;;17.01;50.39;94793.00;5075805;28;20448;-78
2022/05/02 08:37:45;;;;;;;16.70;9.77;;;;;;;17.18;50.76;94801.75;5075495;28;20441;-78
2022/05/02 08:40:30;;;;;;;9.97;9.03;;;;;;;17.22;50.78;94795.09;5075244;28;20448;-78
2022/05/02 08:43:33;;;;;;;9.87;9.03;;;;;;;17.68;49.20;94779.28;5075184;28;20816;-78
2022/05/02 08:46:45;;;;;;;10.30;9.30;;;;;;;17.93;47.96;94780.78;5075067;28;20934;-78
2022/05/02 08:49:47;;;;;;;9.80;8.27;;;;;;;17.85;48.48;94788.78;5040074;28;20488;-78
2022/05/02 08:53:04;;;;;;;9.53;8.53;;;;;;;17.39;49.02;94768.50;5075013;28;20428;-79
2022/05/02 08:55:56;;;;;;;11.63;9.50;;;;;;;17.25;49.69;94773.53;4993656;28;20449;-79
2022/05/02 08:59:04;;;;;;;9.50;8.70;;;;;;;17.18;48.33;94764.63;4993602;28;20432;-78
2022/05/02 09:01:57;;;;;;;8.30;7.60;;;;;;;17.43;47.84;94753.88;4993450;28;20444;-79
2022/05/02 09:04:53;;;;;;;10.33;7.57;;;;;;;17.42;47.60;94754.88;4993825;28;20444;-78
2022/05/02 09:07:48;;;;;;;9.40;8.00;;;;;;;17.44;47.82;94740.44;4993154;28;20455;-78
2022/05/02 09:10:19;;;;;;;13.33;6.80;;;;;;;17.73;45.99;94741.59;4993379;28;20497;-77
2022/05/02 09:13:11;;;;;;;7.73;7.03;;;;;;;17.91;43.84;94727.00;4993025;28;20448;-77
2022/05/02 09:15:58;;;;;;;11.75;6.40;;;;;;;17.79;43.38;94741.72;4993035;28;20448;-78
2022/05/02 09:19:03;;;;;;;6.93;6.30;;;;;;;17.81;42.72;94731.75;4993284;28;20263;-78
2022/05/02 09:21:49;;;;;;;7.30;6.60;;;;;;;17.81;43.54;94731.75;4935511;29;20477;-78
2022/05/02 09:24:48;;;;;;;7.27;6.67;;;;;;;17.93;40.96;94727.69;4935221;29;21048;-77
2022/05/02 09:27:37;;;;;;;6.90;6.30;;;;;;;17.99;41.34;94720.81;4935029;29;20447;-78
2022/05/02 09:30:54;;;;;;;6.23;5.70;;;;;;;18.09;41.13;94717.91;4884817;29;20591;-78
2022/05/02 09:33:44;;;;;;;7.82;5.82;;;;;;;18.03;39.26;94726.59;4974021;28;20903;-80
2022/05/02 09:36:27;;;;;;;7.03;6.23;;;;;;;18.38;40.71;94701.19;4993237;28;20201;-78
2022/05/02 09:39:03;;;;;;;6.97;6.33;;;;;;;18.70;40.03;94710.66;4992801;28;20535;-79
2022/05/02 09:42:23;;;;;;;8.20;7.40;;;;;;;18.71;41.82;94714.94;4993117;28;20620;-80
2022/05/02 09:51:58;;;;;;;11.43;7.40;;;;;;;18.17;40.97;94694.72;4934646;29;20948;-80
2022/05/02 09:57:32;;;;;;;7.03;6.40;;;;;;;17.91;40.07;94689.84;4862894;29;20429;-80
2022/05/02 10:02:48;;;;;;;6.93;6.20;;;;;;;16.99;43.04;94701.41;4877399;29;20450;-80
2022/05/02 10:05:23;;;;;;;12.30;7.47;;;;;;;17.04;44.58;94699.06;4878242;29;20988;-80
2022/05/02 10:08:01;;;;;;;7.67;6.93;;;;;;;16.87;45.96;94695.69;4941243;29;20576;-80
2022/05/02 10:10:39;;;;;;;6.37;5.87;;;;;;;17.09;46.67;94685.31;4953458;29;20494;-80
2022/05/02 10:13:16;;;;;;;6.53;6.03;;;;;;;17.08;43.42;94681.00;4919483;29;21315;-79
2022/05/02 10:16:04;;;;;;;8.47;7.67;;;;;;;17.05;45.54;94695.41;4953823;29;20462;-80
2022/05/02 10:18:58;;;;;;;9.77;8.80;;;;;;;17.43;43.80;94679.59;4953356;29;20490;-79
2022/05/02 10:21:40;;;;;;;12.47;7.13;;;;;;;17.67;42.99;94678.59;4994678;28;20454;-79
2022/05/02 10:24:38;;;;;;;6.83;6.33;;;;;;;17.78;43.21;94667.56;5011652;28;20439;-79
2022/05/02 10:27:22;;;;;;;6.43;5.93;;;;;;;17.60;41.59;94665.19;5011778;28;20431;-80
2022/05/02 10:30:12;;;;;;;7.33;6.73;;;;;;;16.99;42.61;94678.38;5019881;28;20490;-80
2022/05/02 10:32:56;;;;;;;5.63;5.23;;;;;;;16.97;41.32;94668.94;5011765;28;20455;-80
2022/05/02 10:35:24;;;;;;;5.00;4.50;;;;;;;16.98;41.52;94665.28;5012101;28;21054;-80
2022/05/02 10:37:57;;;;;;;8.40;6.17;;;;;;;17.24;41.01;94655.19;5011897;28;20459;-79
2022/05/02 10:40:39;;;;;;;14.13;6.63;;;;;;;17.53;39.53;94645.69;5011545;28;20942;-79
2022/05/02 10:43:10;;;;;;;9.77;6.00;;;;;;;17.67;38.97;94658.22;5011453;28;20451;-79
2022/05/02 10:45:40;;;;;;;5.23;4.53;;;;;;;17.17;39.24;94664.03;5011484;28;20495;-80
2022/05/02 10:48:15;;;;;;;4.40;4.00;;;;;;;17.00;39.44;94653.50;4962810;28;20454;-80
2022/05/02 10:50:51;;;;;;;4.37;4.17;;;;;;;17.27;38.79;94649.53;5011462;28;20498;-80
2022/05/02 10:53:39;;;;;;;4.40;4.10;;;;;;;16.95;39.02;94652.41;5012097;28;20424;-80
2022/05/02 10:56:23;;;;;;;5.07;4.67;;;;;;;17.10;40.19;94652.47;4982279;28;20428;-80
2022/05/02 10:59:02;;;;;;;5.33;4.93;;;;;;;17.34;40.66;94652.28;4934736;29;20778;-80
2022/05/02 11:01:56;;;;;;;4.00;3.60;;;;;;;17.50;40.00;94654.84;4936394;29;20447;-80
2022/05/02 11:04:35;;;;;;;5.00;4.27;;;;;;;17.29;40.58;94641.38;4937563;29;20439;-80
2022/05/02 11:07:08;;;;;;;7.80;4.23;;;;;;;17.36;40.52;94644.19;4938074;29;20454;-80
2022/05/02 11:09:51;;;;;;;5.10;3.70;;;;;;;16.93;42.03;94646.44;4918947;28;20468;-81
2022/05/02 11:12:22;;;;;;;8.00;4.90;;;;;;;17.00;42.21;94652.69;4995935;28;20452;-80
2022/05/02 11:14:56;;;;;;;5.67;5.10;;;;;;;16.94;43.25;94648.09;4995497;28;20455;-80
2022/05/02 11:17:27;;;;;;;7.00;4.77;;;;;;;16.61;44.69;94647.41;4995620;28;20452;-80
2022/05/02 11:23:05;;;;;;;9.33;5.47;;;;;;;16.37;46.42;94657.09;4995588;28;20443;-80
2022/05/02 11:32:38;;;;;;;5.80;4.47;;;;;;;15.85;48.56;94654.09;4994041;28;20427;-80
2022/05/02 11:35:12;;;;;;;5.03;4.53;;;;;;;15.75;48.61;94645.50;5002395;28;20463;-80
2022/05/02 11:37:50;;;;;;;4.80;4.40;;;;;;;15.79;48.70;94657.41;5076888;28;20436;-80
2022/05/02 11:40:18;;;;;;;6.27;5.70;;;;;;;15.85;49.46;94647.97;5058162;28;20424;-80
2022/05/02 11:42:47;;;;;;;5.10;4.70;;;;;;;15.87;48.63;94640.69;5076468;28;20426;-80
2022/05/02 11:45:17;;;;;;;8.90;6.00;;;;;;;16.04;49.27;94651.06;5076908;28;20456;-80
2022/05/02 11:48:21;;;;;;;5.93;5.17;;;;;;;16.15;48.06;94641.13;5076586;28;20497;-80
2022/05/02 11:50:49;;;;;;;6.13;5.40;;;;;;;16.02;47.66;94645.13;5014537;28;20517;-80
2022/05/02 11:53:17;;;;;;;5.43;4.43;;;;;;;15.83;46.61;94648.13;5014476;28;20447;-80
2022/05/02 11:55:46;;;;;;;5.17;4.67;;;;;;;15.69;47.83;94644.38;5014155;28;20946;-79
2022/05/02 11:58:21;;;;;;;5.70;5.10;;;;;;;15.66;49.30;94642.06;5014616;28;20446;-80
2022/05/02 12:00:52;;;;;;;5.77;5.27;;;;;;;15.54;49.10;94634.59;5014274;28;20446;-79
2022/05/02 12:03:25;;;;;;;5.93;5.43;;;;;;;15.53;48.34;94632.94;5014139;28;20913;-80
2022/05/02 12:05:55;;;;;;;6.57;5.97;;;;;;;15.73;48.33;94626.34;5013972;28;20569;-80
2022/05/02 12:08:30;;;;;;;8.00;6.45;;;;;;;15.87;46.55;94627.44;5013785;28;20443;-80
2022/05/02 12:11:07;;;;;;;5.80;5.30;;;;;;;15.99;46.44;94619.00;5014118;28;20217;-78
2022/05/02 12:13:36;;;;;;;6.30;5.77;;;;;;;16.18;46.82;94625.72;5013279;28;20442;-80
2022/05/02 12:16:05;;;;;;;12.43;6.40;;;;;;;16.24;45.02;94626.88;5014715;28;20550;-79
2022/05/02 12:18:46;;;;;;;7.97;5.47;;;;;;;16.33;46.32;94623.19;5013995;28;20840;-81
2022/05/02 12:21:21;;;;;;;6.93;6.30;;;;;;;16.31;48.45;94626.00;5005714;28;20468;-80
2022/05/02 12:23:50;;;;;;;4.90;4.60;;;;;;;16.33;48.44;94633.78;4994331;28;20432;-79
2022/05/02 12:39:51;;;;;;;5.80;5.30;;;;;;;16.25;48.23;94623.22;5074401;28;20949;-78
2022/05/02 12:42:20;;;;;;;7.80;5.97;;;;;;;16.23;50.00;94625.22;5075441;28;20496;-78
2022/05/02 12:44:52;;;;;;;10.27;6.00;;;;;;;16.23;50.19;94617.28;5075504;28;20436;-77
2022/05/02 12:47:23;;;;;;;5.57;5.03;;;;;;;16.15;49.15;94609.34;5075423;28;20824;-78
2022/05/02 12:50:03;;;;;;;5.23;4.73;;;;;;;16.11;49.69;94608.88;5068694;28;20537;-77
2022/05/02 12:52:31;;;;;;;5.00;4.70;;;;;;;16.10;48.59;94608.03;5075202;28;20449;-77
2022/05/02 12:55:00;;;;;;;5.33;4.90;;;;;;;16.13;48.67;94608.69;5075094;28;20916;-77
2022/05/02 13:00:32;;;;;;;5.67;5.27;;;;;;;15.96;47.35;94605.28;5045370;28;20443;-78
2022/05/02 13:03:16;;;;;;;6.07;5.57;;;;;;;16.20;47.90;94604.38;5075317;28;20536;-77
2022/05/02 13:05:54;;;;;;;5.80;4.20;;;;;;;16.29;44.91;94600.72;5068442;28;20510;-77
2022/05/02 13:08:31;;;;;;;6.07;5.60;;;;;;;16.42;44.76;94593.84;5075263;28;20440;-77
2022/05/02 13:11:07;;;;;;;5.20;4.90;;;;;;;16.32;46.94;94606.47;5074698;28;21040;-77
2022/05/02 13:13:42;;;;;;;5.73;5.27;;;;;;;16.33;45.80;94602.00;5074904;28;20448;-77
2022/05/02 13:16:27;;;;;;;5.37;4.70;;;;;;;16.23;45.70;94604.88;5074604;28;20930;-78
2022/05/02 13:18:55;;;;;;;5.40;4.47;;;;;;;16.20;44.61;94596.44;5074305;28;20484;-77
2022/05/02 13:21:23;;;;;;;3.90;3.60;;;;;;;16.14;44.61;94603.22;5074281;28;20436;-78
2022/05/02 13:23:51;;;;;;;5.50;5.10;;;;;;;16.14;45.75;94608.53;5073731;28;20448;-79
2022/05/02 13:26:49;;;;;;;6.63;5.50;;;;;;;16.31;46.22;94599.53;5074072;28;20752;-87
2022/05/02 13:29:28;;;;;;;7.57;6.87;;;;;;;16.50;46.59;94595.66;5074615;28;20439;-78
2022/05/02 13:32:00;;;;;;;5.23;4.80;;;;;;;16.49;45.94;94595.81;5061642;28;20426;-79
2022/05/02 13:34:36;;;;;;;5.00;4.60;;;;;;;16.40;45.74;94581.78;5052607;28;20476;-77
2022/05/02 13:37:12;;;;;;;5.83;5.43;;;;;;;16.54;47.06;94580.22;5054317;28;20529;-78
2022/05/02 13:39:52;;;;;;;4.90;4.50;;;;;;;16.35;46.38;94576.19;5054262;28;20863;-78
2022/05/02 13:42:39;;;;;;;6.30;5.33;;;;;;;16.26;46.71;94574.56;5052579;28;20426;-78
2022/05/02 13:45:16;;;;;;;14.43;4.83;;;;;;;16.09;46.72;94573.81;5054180;28;20438;-79
2022/05/02 13:47:51;;;;;;;5.17;4.20;;;;;;;16.11;47.76;94562.03;5054940;28;20457;-78
2022/05/02 13:50:21;;;;;;;6.90;4.60;;;;;;;16.19;46.79;94563.84;5051398;28;20491;-79
2022/05/02 13:52:52;;;;;;;5.23;4.47;;;;;;;16.26;46.00;94572.75;5074298;28;20914;-79
2022/05/02 13:55:24;;;;;;;7.60;4.30;;;;;;;16.34;46.04;94561.28;5074214;28;20444;-78
2022/05/02 13:57:59;;;;;;;7.53;4.23;;;;;;;16.40;45.83;94566.72;5074032;28;20793;-78
2022/05/02 14:03:40;;;;;;;5.27;4.87;;;;;;;16.62;46.70;94564.28;5031866;28;20442;-78
2022/05/02 14:06:12;;;;;;;5.40;4.83;;;;;;;16.46;46.79;94562.53;5030861;28;20457;-78
2022/05/02 14:08:43;;;;;;;6.63;4.83;;;;;;;16.51;46.56;94570.81;5031746;28;20490;-79
2022/05/02 14:11:16;;;;;;;3.93;3.63;;;;;;;16.29;46.25;94566.28;5031536;28;20474;-79
2022/05/02 14:13:47;;;;;;;4.80;3.83;;;;;;;16.20;46.61;94577.91;5032275;28;20431;-79
2022/05/02 15:07:55;;;;;;;7.10;5.00;;;;;;;15.10;52.52;94555.63;5050334;28;20527;-79
2022/05/02 15:10:42;;;;;;;6.60;4.97;;;;;;;15.06;53.86;94549.03;5053122;28;20519;-78
2022/05/02 15:13:23;;;;;;;4.60;4.20;;;;;;;15.02;52.02;94555.63;5053311;28;20422;-78
2022/05/02 15:22:37;;;;;;;5.13;4.73;;;;;;;14.83;53.75;94560.25;5052016;28;20931;-78
2022/05/02 15:25:07;;;;;;;5.20;4.80;;;;;;;14.76;54.20;94553.16;5051774;28;20440;-79
2022/05/02 15:36:40;;;;;;;8.97;5.00;;;;;;;15.14;54.08;94539.28;5052972;28;20410;-80
2022/05/02 15:39:11;;;;;;;5.63;4.70;;;;;;;15.28;53.39;94548.34;5052689;28;20434;-79
2022/05/02 15:45:20;;;;;;;4.07;3.77;;;;;;;15.24;53.10;94540.91;5052028;28;20859;-78
2022/05/02 15:47:47;;;;;;;5.27;4.77;;;;;;;15.17;53.76;94535.47;5058429;28;20444;-78
2022/05/02 15:50:15;;;;;;;7.13;5.77;;;;;;;15.13;52.63;94520.94;5056496;28;20490;-80
2022/05/02 15:52:57;;;;;;;5.63;5.20;;;;;;;15.27;52.89;94530.81;5038131;28;20854;-77
2022/05/02 15:55:53;;;;;;;8.20;7.20;;;;;;;15.22;53.22;94530.50;5056214;28;20445;-78
2022/05/02 15:58:21;;;;;;;5.00;4.50;;;;;;;14.99;54.08;94535.63;5056364;28;20503;-78
2022/05/02 16:01:00;;;;;;;4.87;4.47;;;;;;;14.73;53.55;94533.16;5056605;28;20453;-78